createdAt,value
2022-12-23T00:01:02.433Z,10.60
2022-12-23T00:03:32.451Z,10.40
2022-12-23T00:06:03.473Z,10.60
2022-12-23T00:08:31.338Z,10.60
2022-12-23T00:10:59.341Z,10.60
2022-12-23T00:13:45.781Z,11.10
2022-12-23T00:16:15.190Z,10.60
2022-12-23T00:18:43.640Z,10.60
2022-12-23T00:21:15.173Z,10.60
2022-12-23T00:23:46.238Z,10.60
2022-12-23T00:26:25.671Z,10.60
2022-12-23T00:28:57.771Z,10.60
2022-12-23T00:31:26.070Z,10.50
2022-12-23T00:33:54.662Z,10.50
2022-12-23T00:36:49.498Z,10.50
2022-12-23T00:39:45.507Z,10.40
2022-12-23T00:42:32.137Z,10.40
2022-12-23T00:45:16.174Z,10.50
2022-12-23T00:48:06.361Z,10.50
2022-12-23T00:50:37.853Z,10.40
2022-12-23T00:53:06.714Z,10.40
2022-12-23T00:55:34.433Z,10.40
2022-12-23T00:58:02.166Z,10.40
2022-12-23T01:00:48.715Z,10.40
2022-12-23T01:03:35.387Z,10.40
2022-12-23T01:06:04.192Z,10.40
2022-12-23T01:08:31.997Z,10.40
2022-12-23T01:11:07.043Z,10.40
2022-12-23T01:13:35.351Z,10.30
2022-12-23T01:16:15.141Z,10.30
2022-12-23T01:18:45.625Z,10.30
2022-12-23T01:21:13.789Z,10.30
2022-12-23T01:23:41.635Z,10.20
2022-12-23T01:26:09.377Z,10.20
2022-12-23T01:28:37.145Z,10.20
2022-12-23T01:31:06.355Z,10.20
2022-12-23T01:33:34.416Z,10.20
2022-12-23T01:36:09.448Z,10.20
2022-12-23T01:38:37.280Z,10.20
2022-12-23T01:41:05.294Z,10.10
2022-12-23T01:43:46.619Z,10.10
2022-12-23T01:46:15.676Z,10.00
2022-12-23T01:48:49.136Z,10.10
2022-12-23T01:51:20.823Z,10.10
2022-12-23T01:53:53.320Z,10.10
2022-12-23T01:56:41.422Z,10.10
2022-12-23T01:59:32.762Z,10.00
2022-12-23T02:02:19.851Z,10.00
2022-12-23T02:04:49.916Z,10.00
2022-12-23T02:07:37.294Z,10.00
2022-12-23T02:10:07.271Z,9.90
2022-12-23T02:12:53.486Z,9.90
2022-12-23T02:16:18.490Z,9.90
2022-12-23T02:19:17.865Z,9.90
2022-12-23T02:22:11.604Z,9.90
2022-12-23T02:25:07.386Z,9.90
2022-12-23T02:27:50.057Z,9.90
2022-12-23T02:30:35.204Z,9.80
2022-12-23T02:33:14.799Z,9.80
2022-12-23T02:35:52.560Z,9.80
2022-12-23T02:38:34.470Z,9.80
2022-12-23T02:41:17.451Z,9.80
2022-12-23T02:44:10.749Z,9.80
2022-12-23T02:46:46.358Z,9.80
2022-12-23T02:49:30.280Z,9.80
2022-12-23T02:52:02.530Z,9.80
2022-12-23T02:54:34.082Z,9.70
2022-12-23T02:57:05.484Z,9.70
2022-12-23T02:59:47.329Z,9.60
2022-12-23T03:02:15.192Z,9.60
2022-12-23T03:04:43.217Z,9.60
2022-12-23T03:07:33.216Z,9.50
2022-12-23T03:10:16.074Z,9.50
2022-12-23T03:13:01.840Z,9.60
2022-12-23T03:15:38.078Z,9.60
2022-12-23T03:18:18.473Z,9.60
2022-12-23T03:21:09.243Z,9.60
2022-12-23T03:23:55.247Z,9.60
2022-12-23T03:26:40.582Z,9.60
2022-12-23T03:29:14.033Z,9.60
2022-12-23T03:31:42.991Z,9.60
2022-12-23T03:34:20.106Z,9.60
2022-12-23T03:36:54.790Z,9.60
2022-12-23T03:39:26.350Z,9.60
2022-12-23T03:42:00.968Z,9.60
2022-12-23T03:44:32.580Z,9.60
2022-12-23T03:47:09.755Z,9.60
2022-12-23T03:49:46.731Z,9.60
2022-12-23T03:52:21.524Z,9.60
2022-12-23T03:54:56.303Z,9.60
2022-12-23T03:57:34.881Z,9.60
2022-12-23T04:00:02.642Z,9.60
2022-12-23T04:02:50.775Z,9.60
2022-12-23T04:05:21.514Z,9.60
2022-12-23T04:08:07.395Z,9.60
2022-12-23T04:10:35.589Z,9.60
2022-12-23T04:13:03.366Z,9.60
2022-12-23T04:15:31.177Z,9.60
2022-12-23T04:17:59.347Z,9.60
2022-12-23T04:20:26.984Z,9.60
2022-12-23T04:22:54.664Z,9.60
2022-12-23T04:25:22.485Z,9.60
2022-12-23T04:27:50.528Z,9.60
2022-12-23T04:30:18.810Z,9.60
2022-12-23T04:32:46.482Z,9.60
2022-12-23T04:35:14.286Z,9.60
2022-12-23T04:37:42.090Z,9.60
2022-12-23T04:40:09.936Z,9.60
2022-12-23T04:42:37.605Z,9.50
2022-12-23T04:45:05.890Z,9.50
2022-12-23T04:47:33.593Z,9.50
2022-12-23T04:50:01.345Z,9.50
2022-12-23T04:52:29.050Z,9.50
2022-12-23T04:54:56.777Z,9.50
2022-12-23T04:57:24.532Z,9.30
2022-12-23T04:59:52.282Z,9.50
2022-12-23T05:02:20.145Z,9.50
2022-12-23T05:04:47.926Z,9.50
2022-12-23T05:07:15.659Z,9.50
2022-12-23T05:09:43.369Z,9.40
2022-12-23T05:12:11.085Z,9.50
2022-12-23T05:14:38.790Z,9.50
2022-12-23T05:17:08.017Z,9.50
2022-12-23T05:19:35.897Z,9.50
2022-12-23T05:22:03.589Z,9.50
2022-12-23T05:24:31.267Z,9.50
2022-12-23T05:27:00.457Z,9.50
2022-12-23T05:29:28.516Z,9.50
2022-12-23T05:31:56.235Z,9.50
2022-12-23T05:34:24.024Z,9.50
2022-12-23T05:36:51.715Z,9.50
2022-12-23T05:39:19.355Z,9.50
2022-12-23T05:41:47.110Z,9.60
2022-12-23T05:44:14.872Z,9.60
2022-12-23T05:46:42.672Z,9.50
2022-12-23T05:49:10.534Z,9.50
2022-12-23T05:51:38.263Z,9.50
2022-12-23T05:54:06.009Z,9.50
2022-12-23T05:56:33.756Z,9.50
2022-12-23T05:59:01.508Z,9.50
2022-12-23T06:01:29.259Z,9.50
2022-12-23T06:03:57.051Z,9.40
2022-12-23T06:06:25.067Z,9.40
2022-12-23T06:08:59.204Z,9.40
2022-12-23T06:11:28.017Z,9.40
2022-12-23T06:13:55.831Z,9.30
2022-12-23T06:16:23.672Z,9.30
2022-12-23T06:18:56.379Z,9.30
2022-12-23T06:21:25.672Z,9.30
2022-12-23T06:23:53.387Z,9.30
2022-12-23T06:26:21.184Z,9.30
2022-12-23T06:28:49.022Z,9.20
2022-12-23T06:31:17.057Z,9.20
2022-12-23T06:33:44.890Z,9.20
2022-12-23T06:36:12.625Z,9.20
2022-12-23T06:38:40.521Z,9.10
2022-12-23T06:41:08.360Z,9.10
2022-12-23T06:43:36.191Z,9.10
2022-12-23T06:46:04.066Z,9.00
2022-12-23T06:48:31.766Z,9.00
2022-12-23T06:50:59.487Z,8.90
2022-12-23T06:53:27.277Z,8.90
2022-12-23T06:56:01.817Z,8.80
2022-12-23T06:58:29.872Z,8.80
2022-12-23T07:00:57.563Z,8.80
2022-12-23T07:03:46.652Z,8.70
2022-12-23T07:06:19.187Z,8.70
2022-12-23T07:08:46.928Z,8.70
2022-12-23T07:11:17.485Z,8.70
2022-12-23T07:13:53.100Z,8.70
2022-12-23T07:16:20.836Z,8.60
2022-12-23T07:18:48.564Z,8.60
2022-12-23T07:21:26.501Z,8.60
2022-12-23T07:23:56.270Z,8.60
2022-12-23T07:26:24.173Z,8.60
2022-12-23T07:28:51.884Z,8.60
2022-12-23T07:31:19.679Z,8.40
2022-12-23T07:33:47.587Z,8.60
2022-12-23T07:36:15.391Z,8.60
2022-12-23T07:38:43.281Z,8.60
2022-12-23T07:41:14.081Z,8.60
2022-12-23T07:43:41.961Z,8.60
2022-12-23T07:46:10.584Z,8.60
2022-12-23T07:48:41.794Z,8.60
2022-12-23T07:51:10.067Z,8.60
2022-12-23T07:53:38.112Z,8.50
2022-12-23T07:56:06.629Z,8.50
2022-12-23T07:58:34.490Z,8.60
2022-12-23T08:01:05.528Z,8.60
2022-12-23T08:03:33.638Z,8.60
2022-12-23T08:06:09.668Z,8.60
2022-12-23T08:08:41.095Z,8.60
2022-12-23T08:11:12.836Z,8.60
2022-12-23T08:13:42.487Z,8.60
2022-12-23T08:16:11.304Z,8.60
2022-12-23T08:18:44.301Z,8.60
2022-12-23T08:21:19.168Z,8.60
2022-12-23T08:23:51.221Z,8.60
2022-12-23T08:26:27.340Z,8.60
2022-12-23T09:13:22.310Z,8.60
2022-12-23T09:15:54.414Z,9.10
2022-12-23T09:18:22.271Z,9.20
2022-12-23T09:20:49.974Z,9.20
2022-12-23T09:23:17.752Z,9.20
2022-12-23T09:25:45.498Z,9.20
2022-12-23T09:28:13.817Z,9.20
2022-12-23T09:30:45.167Z,9.20
2022-12-23T09:33:22.332Z,9.10
2022-12-23T09:36:04.642Z,9.10
2022-12-23T09:38:37.025Z,9.10
2022-12-23T09:41:29.466Z,9.10
2022-12-23T09:44:23.958Z,9.10
2022-12-23T09:47:05.952Z,9.10
2022-12-23T09:49:34.609Z,8.90
2022-12-23T09:52:05.806Z,9.10
2022-12-23T09:54:46.262Z,9.10
2022-12-23T09:57:36.462Z,9.10
2022-12-23T10:00:18.046Z,9.20
2022-12-23T10:03:00.903Z,9.20
2022-12-23T10:06:31.086Z,9.20
2022-12-23T10:09:05.505Z,9.30
2022-12-23T10:11:45.558Z,9.40
2022-12-23T10:14:32.931Z,9.40
2022-12-23T10:17:26.275Z,9.30
2022-12-23T10:19:59.851Z,9.30
2022-12-23T10:22:43.234Z,9.40
2022-12-23T10:25:43.438Z,9.30
2022-12-23T10:28:12.184Z,9.40
2022-12-23T10:31:11.241Z,9.40
2022-12-23T10:33:52.880Z,9.50
2022-12-23T10:36:47.233Z,9.20
2022-12-23T10:39:38.367Z,9.60
2022-12-23T10:42:29.915Z,9.60
2022-12-23T10:45:10.163Z,9.60
2022-12-23T10:48:14.006Z,9.70
2022-12-23T10:51:05.530Z,9.80
2022-12-23T10:53:36.951Z,9.90
2022-12-23T10:56:10.665Z,10.00
2022-12-23T10:58:55.713Z,10.00
2022-12-23T11:01:34.971Z,10.00
2022-12-23T11:04:34.514Z,10.00
2022-12-23T11:07:43.437Z,10.10
2022-12-23T11:10:17.359Z,10.10
2022-12-23T11:13:00.137Z,10.20
2022-12-23T11:15:42.732Z,10.20
2022-12-23T11:18:13.342Z,10.30
2022-12-23T11:20:42.073Z,10.30
2022-12-23T11:23:31.230Z,10.30
2022-12-23T11:26:08.637Z,10.40
2022-12-23T11:28:46.363Z,10.40
2022-12-23T11:31:14.801Z,10.50
2022-12-23T11:33:58.407Z,10.60
2022-12-23T11:36:31.245Z,10.60
2022-12-23T11:39:17.455Z,10.70
2022-12-23T11:41:51.297Z,10.80
2022-12-23T11:44:29.030Z,10.80
2022-12-23T11:51:06.529Z,11.10
2022-12-23T11:53:44.465Z,11.20
2022-12-23T11:56:16.017Z,11.30
2022-12-23T11:59:15.918Z,11.40
2022-12-23T12:01:57.972Z,11.50
2022-12-23T12:04:27.754Z,11.60
2022-12-23T12:07:01.301Z,12.00
2022-12-23T12:10:25.894Z,12.40
2022-12-23T12:13:57.584Z,12.70
2022-12-23T12:17:38.304Z,12.70
2022-12-23T12:21:01.736Z,13.10
2022-12-23T12:24:19.592Z,13.60
2022-12-23T12:27:00.716Z,14.00
2022-12-23T12:30:12.562Z,14.40
2022-12-23T12:33:23.466Z,14.40
2022-12-23T12:36:21.839Z,14.40
2022-12-23T12:38:53.754Z,14.70
2022-12-23T12:41:45.060Z,15.20
2022-12-23T12:44:26.913Z,15.60
2022-12-23T12:47:28.558Z,15.70
2022-12-23T12:50:02.899Z,15.60
2022-12-23T12:52:41.245Z,15.30
2022-12-23T12:55:37.083Z,15.00
2022-12-23T12:58:21.471Z,14.70
2022-12-23T13:00:58.721Z,14.50
2022-12-23T13:04:05.085Z,14.40
2022-12-23T13:06:36.705Z,14.50
2022-12-23T13:09:29.719Z,14.50
2022-12-23T13:12:43.558Z,14.40
2022-12-23T13:15:47.373Z,14.30
2022-12-23T13:18:38.783Z,14.10
2022-12-23T13:21:43.877Z,14.00
2022-12-23T13:24:56.137Z,13.90
2022-12-23T13:31:31.505Z,13.80
2022-12-23T13:34:37.002Z,13.70
2022-12-23T13:37:32.581Z,13.60
2022-12-23T13:40:15.534Z,13.50
2022-12-23T13:42:57.729Z,13.40
2022-12-23T13:45:34.580Z,13.30
2022-12-23T13:48:36.072Z,13.20
2022-12-23T13:51:16.561Z,13.10
2022-12-23T13:54:04.220Z,13.00
2022-12-23T13:56:45.475Z,12.90
2022-12-23T13:59:17.327Z,12.90
2022-12-23T14:01:50.298Z,12.90
2022-12-23T14:04:56.766Z,12.90
2022-12-23T14:07:39.433Z,13.00
2022-12-23T14:10:20.276Z,13.00
2022-12-23T14:13:09.088Z,13.00
2022-12-23T14:20:31.745Z,13.10
2022-12-23T14:23:34.785Z,13.10
2022-12-23T14:26:58.673Z,13.10
2022-12-23T14:30:18.506Z,13.00
2022-12-23T14:45:48.155Z,12.60
2022-12-23T14:52:47.544Z,12.30
2022-12-23T14:55:52.723Z,11.90
2022-12-23T14:59:46.876Z,12.20
2022-12-23T15:17:04.323Z,11.80
2022-12-23T15:21:10.400Z,11.80
2022-12-23T15:24:24.506Z,11.80
2022-12-23T15:27:25.231Z,11.70
2022-12-23T15:29:51.220Z,11.60
2022-12-23T15:32:25.019Z,11.50
2022-12-23T15:35:01.372Z,11.40
2022-12-23T15:37:30.939Z,11.30
2022-12-23T15:40:12.527Z,11.20
2022-12-23T15:42:52.714Z,11.20
2022-12-23T15:45:23.775Z,11.10
2022-12-23T15:48:20.168Z,11.10
2022-12-23T15:51:49.549Z,11.00
2022-12-23T15:54:30.305Z,11.00
2022-12-23T15:57:02.882Z,10.90
2022-12-23T15:59:39.151Z,10.90
2022-12-23T16:03:00.255Z,10.80
2022-12-23T16:05:57.004Z,10.80
2022-12-23T16:08:48.739Z,10.70
2022-12-23T16:11:41.026Z,10.70
2022-12-23T16:14:30.712Z,10.60
2022-12-23T16:17:38.010Z,10.60
2022-12-23T16:20:47.009Z,10.50
2022-12-23T16:23:39.939Z,10.40
2022-12-23T16:26:36.723Z,10.40
2022-12-23T16:30:03.616Z,10.30
2022-12-23T16:33:03.965Z,10.40
2022-12-23T16:36:06.080Z,10.20
2022-12-23T16:39:22.474Z,10.20
2022-12-23T16:41:56.200Z,10.10
2022-12-23T16:44:24.060Z,10.20
2022-12-23T16:46:52.412Z,10.20
2022-12-23T16:49:40.238Z,10.20
2022-12-23T16:52:12.877Z,10.30
2022-12-23T16:54:42.649Z,10.30
2022-12-23T16:57:13.249Z,10.40
2022-12-23T16:59:49.488Z,10.40
2022-12-23T17:02:24.802Z,10.40
2022-12-23T17:04:52.649Z,10.50
2022-12-23T17:07:26.470Z,10.50
2022-12-23T17:09:56.053Z,10.50
2022-12-23T17:12:23.782Z,10.50
2022-12-23T17:14:59.855Z,10.50
2022-12-23T17:17:28.016Z,10.50
2022-12-23T17:19:57.657Z,10.50
2022-12-23T17:22:27.311Z,10.50
2022-12-23T17:24:57.848Z,10.50
2022-12-23T17:27:28.507Z,10.40
2022-12-23T17:29:57.859Z,10.40
2022-12-23T17:32:28.644Z,10.40
2022-12-23T17:34:56.503Z,10.40
2022-12-23T17:37:25.006Z,10.40
2022-12-23T17:42:46.082Z,10.40
2022-12-23T17:45:32.932Z,10.40
2022-12-23T17:48:04.733Z,10.40
2022-12-23T17:50:45.558Z,10.30
2022-12-23T17:53:37.969Z,10.30
2022-12-23T17:56:19.747Z,10.20
2022-12-23T17:58:49.776Z,10.10
2022-12-23T18:01:32.979Z,10.10
2022-12-23T18:04:14.514Z,10.00
2022-12-23T18:06:42.536Z,9.90
2022-12-23T18:09:12.659Z,9.90
2022-12-23T18:11:47.819Z,9.80
2022-12-23T18:14:28.307Z,9.80
2022-12-23T18:17:15.694Z,9.80
2022-12-23T18:19:51.750Z,9.80
2022-12-23T18:22:23.354Z,9.90
2022-12-23T18:24:58.846Z,9.90
2022-12-23T18:27:33.397Z,9.90
2022-12-23T18:30:03.888Z,9.90
2022-12-23T18:32:34.634Z,9.80
2022-12-23T18:35:03.043Z,9.80
2022-12-23T18:37:35.803Z,9.60
2022-12-23T18:40:13.398Z,9.80
2022-12-23T18:42:49.661Z,9.80
2022-12-23T18:45:20.471Z,9.80
2022-12-23T18:47:51.826Z,9.80
2022-12-23T18:50:20.131Z,9.80
2022-12-23T18:52:56.815Z,9.80
2022-12-23T18:55:29.169Z,9.70
2022-12-23T18:57:59.928Z,9.70
2022-12-23T19:00:37.150Z,9.70
2022-12-23T19:03:05.122Z,9.60
2022-12-23T19:05:33.251Z,9.60
2022-12-23T19:08:01.599Z,9.50
2022-12-23T19:10:35.235Z,9.60
2022-12-23T19:13:03.363Z,9.60
2022-12-23T19:15:33.879Z,9.60
2022-12-23T19:18:05.305Z,9.60
2022-12-23T19:20:38.503Z,9.50
2022-12-23T19:23:07.503Z,9.50
2022-12-23T19:25:57.179Z,9.50
2022-12-23T19:28:32.926Z,9.40
2022-12-23T19:31:01.922Z,9.40
2022-12-23T19:33:34.102Z,9.30
2022-12-23T19:36:19.103Z,9.30
2022-12-23T19:38:47.539Z,9.30
2022-12-23T19:41:16.725Z,9.30
2022-12-23T19:43:47.645Z,9.30
2022-12-23T19:46:20.057Z,9.30
2022-12-23T19:48:54.662Z,9.30
2022-12-23T19:51:22.630Z,9.20
2022-12-23T19:53:51.840Z,9.20
2022-12-23T19:56:26.162Z,9.20
2022-12-23T19:58:54.174Z,9.20
2022-12-23T20:01:27.777Z,9.20
2022-12-23T20:03:58.543Z,9.20
2022-12-23T20:06:34.624Z,9.20
2022-12-23T20:09:06.677Z,9.20
2022-12-23T20:11:39.468Z,9.20
2022-12-23T20:14:14.371Z,9.20
2022-12-23T20:16:51.850Z,9.20
2022-12-23T20:19:23.696Z,9.20
2022-12-23T20:21:52.941Z,9.20
2022-12-23T20:24:23.747Z,9.20
2022-12-23T20:27:04.040Z,9.20
2022-12-23T20:29:38.105Z,9.20
2022-12-23T20:32:16.132Z,9.20
2022-12-23T20:34:45.039Z,9.20
2022-12-23T20:37:16.425Z,9.20
2022-12-23T20:39:51.677Z,9.20
2022-12-23T20:42:20.421Z,9.20
2022-12-23T20:44:54.126Z,9.20
2022-12-23T20:47:27.923Z,9.20
2022-12-23T20:49:59.875Z,9.10
2022-12-23T20:52:38.009Z,9.20
2022-12-23T20:55:09.856Z,9.20
2022-12-23T20:57:45.773Z,9.20
2022-12-23T21:00:24.973Z,9.20
2022-12-23T21:03:20.047Z,9.20
2022-12-23T21:06:01.744Z,9.20
2022-12-23T21:08:47.241Z,9.20
2022-12-23T21:11:37.944Z,9.10
2022-12-23T21:14:18.474Z,9.10
2022-12-23T21:17:03.177Z,9.00
2022-12-23T21:19:47.423Z,8.90
2022-12-23T21:22:24.099Z,8.90
2022-12-23T21:25:04.454Z,8.90
2022-12-23T21:28:04.784Z,8.90
2022-12-23T21:30:47.847Z,8.90
2022-12-23T21:33:23.600Z,8.90
2022-12-23T21:35:59.821Z,8.90
2022-12-23T21:38:48.560Z,8.80
2022-12-23T21:41:37.760Z,8.90
2022-12-23T21:44:11.271Z,8.80
2022-12-23T21:47:02.580Z,8.80
2022-12-23T21:49:33.759Z,8.80
2022-12-23T21:52:08.070Z,8.80
2022-12-23T21:55:08.696Z,8.90
2022-12-23T21:57:37.293Z,8.90
2022-12-23T22:00:17.925Z,8.80
2022-12-23T22:02:49.998Z,8.80
2022-12-23T22:05:29.627Z,8.80
2022-12-23T22:08:05.894Z,8.80
2022-12-23T22:10:40.728Z,8.80
2022-12-23T22:13:11.773Z,8.80
2022-12-23T22:15:43.861Z,8.80
2022-12-23T22:18:24.911Z,8.60
2022-12-23T22:21:00.423Z,8.80
2022-12-23T22:23:35.838Z,8.80
2022-12-23T22:26:12.334Z,8.80
2022-12-23T22:28:47.540Z,8.80
2022-12-23T22:31:54.788Z,8.80
2022-12-23T22:37:54.962Z,9.00
2022-12-23T22:40:37.320Z,9.00
2022-12-23T22:43:46.934Z,9.00
2022-12-23T22:46:22.836Z,9.00
2022-12-23T22:49:06.535Z,9.00
2022-12-23T22:51:47.956Z,8.90
2022-12-23T22:54:29.545Z,8.90
2022-12-23T22:57:13.775Z,8.90
2022-12-23T22:59:58.421Z,9.00
2022-12-23T23:02:54.835Z,9.00
2022-12-23T23:06:12.428Z,9.00
2022-12-23T23:14:08.060Z,8.90
2022-12-23T23:17:31.081Z,8.90
2022-12-23T23:20:11.864Z,8.90
2022-12-23T23:22:48.299Z,9.00
2022-12-23T23:25:25.892Z,9.00
2022-12-23T23:28:00.604Z,9.00
2022-12-23T23:30:42.478Z,9.20
2022-12-23T23:38:03.343Z,9.20
2022-12-23T23:41:42.392Z,9.30
2022-12-23T23:48:39.178Z,9.20
2022-12-23T23:51:57.522Z,9.10
2022-12-23T23:55:16.253Z,9.10
2022-12-23T23:58:24.871Z,9.20
